createdAt,value
2023-10-20T00:02:29.088Z,54.10
2023-10-20T00:04:56.228Z,36.10
2023-10-20T00:07:23.137Z,43.78
2023-10-20T00:09:54.257Z,37.38
2023-10-20T00:12:21.162Z,37.22
2023-10-20T00:14:48.024Z,40.50
2023-10-20T00:17:15.466Z,39.58
2023-10-20T00:19:42.363Z,39.90
2023-10-20T00:22:09.325Z,37.78
2023-10-20T00:24:36.135Z,40.17
2023-10-20T00:27:04.414Z,40.65
2023-10-20T00:29:31.330Z,38.08
2023-10-20T00:31:58.300Z,39.20
2023-10-20T00:34:25.266Z,38.03
2023-10-20T00:36:52.124Z,35.97
2023-10-20T00:39:18.996Z,42.92
2023-10-20T00:41:45.873Z,49.72
2023-10-20T00:44:12.735Z,35.78
2023-10-20T00:46:39.628Z,39.65
2023-10-20T00:49:06.583Z,36.10
2023-10-20T00:51:33.656Z,41.90
2023-10-20T00:54:01.260Z,33.92
2023-10-20T00:56:30.115Z,43.60
2023-10-20T00:58:57.440Z,43.42
2023-10-20T01:01:24.534Z,33.63
2023-10-20T01:03:51.736Z,46.03
2023-10-20T01:06:18.709Z,45.65
2023-10-20T01:08:45.607Z,34.63
2023-10-20T01:11:12.579Z,34.13
2023-10-20T01:13:39.521Z,32.40
2023-10-20T01:16:06.450Z,38.40
2023-10-20T01:18:33.708Z,38.42
2023-10-20T01:21:00.566Z,57.38
2023-10-20T01:23:27.529Z,40.50
2023-10-20T01:25:54.483Z,42.90
2023-10-20T01:28:21.500Z,35.85
2023-10-20T01:30:48.833Z,43.65
2023-10-20T01:33:15.998Z,43.05
2023-10-20T01:35:42.964Z,35.92
2023-10-20T01:38:10.045Z,40.92
2023-10-20T01:40:36.875Z,36.42
2023-10-20T01:43:03.879Z,44.00
2023-10-20T01:45:30.875Z,39.33
2023-10-20T01:47:57.831Z,41.50
2023-10-20T01:50:25.389Z,36.22
2023-10-20T01:52:52.424Z,40.03
2023-10-20T01:55:19.550Z,43.47
2023-10-20T01:57:46.523Z,46.50
2023-10-20T02:00:18.174Z,36.95
2023-10-20T02:02:45.162Z,41.45
2023-10-20T02:05:13.688Z,39.13
2023-10-20T02:07:40.935Z,43.85
2023-10-20T02:10:08.402Z,47.30
2023-10-20T02:12:35.915Z,38.55
2023-10-20T02:15:02.965Z,39.92
2023-10-20T02:17:30.311Z,39.10
2023-10-20T02:19:58.619Z,37.10
2023-10-20T02:22:26.391Z,39.03
2023-10-20T02:24:54.245Z,34.75
2023-10-20T02:27:21.295Z,41.10
2023-10-20T02:29:48.138Z,36.05
2023-10-20T02:32:15.123Z,38.08
2023-10-20T02:34:42.239Z,34.60
2023-10-20T02:37:13.174Z,41.33
2023-10-20T02:39:40.467Z,35.15
2023-10-20T02:42:07.418Z,32.10
2023-10-20T02:44:34.508Z,31.58
2023-10-20T02:47:01.563Z,30.15
2023-10-20T02:49:28.475Z,33.63
2023-10-20T02:51:56.303Z,35.17
2023-10-20T02:54:23.263Z,34.65
2023-10-20T02:56:50.181Z,31.95
2023-10-20T02:59:17.012Z,36.60
2023-10-20T03:01:44.690Z,26.88
2023-10-20T03:04:11.726Z,35.95
2023-10-20T03:06:38.852Z,34.38
2023-10-20T03:09:05.729Z,30.33
2023-10-20T03:11:32.657Z,32.35
2023-10-20T03:13:59.625Z,33.35
2023-10-20T03:16:26.581Z,34.83
2023-10-20T03:18:53.481Z,31.52
2023-10-20T03:21:22.217Z,34.47
2023-10-20T03:23:49.168Z,40.13
2023-10-20T03:26:16.179Z,32.28
2023-10-20T03:28:43.034Z,32.95
2023-10-20T03:31:10.077Z,41.58
2023-10-20T03:33:36.976Z,27.02
2023-10-20T03:36:05.061Z,35.75
2023-10-20T03:38:32.708Z,28.38
2023-10-20T03:41:07.365Z,30.80
2023-10-20T03:43:36.081Z,31.52
2023-10-20T03:46:05.124Z,31.35
2023-10-20T03:48:34.654Z,27.55
2023-10-20T03:51:02.270Z,30.10
2023-10-20T03:53:30.512Z,27.55
2023-10-20T03:56:01.784Z,34.28
2023-10-20T03:58:30.581Z,30.35
2023-10-20T04:00:59.341Z,33.65
2023-10-20T04:03:26.588Z,35.80
2023-10-20T04:05:54.530Z,39.17
2023-10-20T04:08:22.773Z,31.08
2023-10-20T04:10:50.033Z,33.78
2023-10-20T04:13:16.892Z,31.98
2023-10-20T04:15:43.832Z,33.25
2023-10-20T04:18:10.848Z,27.92
2023-10-20T04:20:42.504Z,32.72
2023-10-20T04:23:09.992Z,34.30
2023-10-20T04:25:40.604Z,34.28
2023-10-20T04:28:10.729Z,35.85
2023-10-20T04:30:56.052Z,37.63
2023-10-20T04:33:41.472Z,36.22
2023-10-20T04:36:26.922Z,30.70
2023-10-20T04:39:23.073Z,39.60
2023-10-20T04:41:52.845Z,29.17
2023-10-20T04:44:19.895Z,27.90
2023-10-20T04:46:55.120Z,30.45
2023-10-20T04:49:40.825Z,39.35
2023-10-20T04:52:28.067Z,28.58
2023-10-20T04:55:01.046Z,26.20
2023-10-20T04:57:51.446Z,36.08
2023-10-20T05:00:24.054Z,29.08
2023-10-20T05:02:52.243Z,29.02
2023-10-20T05:05:26.537Z,31.98
2023-10-20T05:08:00.300Z,29.88
2023-10-20T05:10:28.260Z,29.50
2023-10-20T05:12:55.195Z,34.63
2023-10-20T05:15:22.315Z,26.30
2023-10-20T05:17:51.790Z,31.83
2023-10-20T05:20:21.530Z,27.65
2023-10-20T05:22:49.455Z,24.08
2023-10-20T05:25:16.484Z,23.17
2023-10-20T05:27:44.106Z,21.92
2023-10-20T05:30:11.232Z,31.50
2023-10-20T05:32:38.773Z,27.95
2023-10-20T05:35:08.609Z,25.05
2023-10-20T05:37:35.795Z,26.13
2023-10-20T05:40:04.741Z,28.05
2023-10-20T05:42:33.229Z,27.00
2023-10-20T05:45:04.021Z,25.60
2023-10-20T05:47:31.621Z,23.17
2023-10-20T05:50:00.475Z,22.52
2023-10-20T05:52:27.501Z,22.10
2023-10-20T05:54:55.366Z,21.90
2023-10-20T05:57:23.707Z,22.85
2023-10-20T05:59:51.219Z,21.60
2023-10-20T06:02:18.134Z,22.38
2023-10-20T06:04:45.294Z,22.98
2023-10-20T06:07:12.665Z,24.08
2023-10-20T06:09:40.789Z,20.95
2023-10-20T06:12:11.588Z,21.08
2023-10-20T06:14:38.766Z,22.20
2023-10-20T06:17:05.699Z,21.77
2023-10-20T06:19:32.874Z,26.02
2023-10-20T06:22:01.597Z,18.85
2023-10-20T06:24:29.266Z,29.23
2023-10-20T06:27:03.456Z,16.42
2023-10-20T06:29:34.326Z,17.15
2023-10-20T06:32:19.820Z,15.48
2023-10-20T06:34:48.005Z,14.23
2023-10-20T06:37:25.539Z,16.88
2023-10-20T06:39:52.753Z,18.17
2023-10-20T06:42:21.118Z,19.08
2023-10-20T06:44:49.823Z,16.73
2023-10-20T06:47:16.779Z,15.75
2023-10-20T06:49:45.652Z,16.25
2023-10-20T06:52:18.062Z,14.38
2023-10-20T06:55:15.227Z,22.60
2023-10-20T06:57:37.605Z,14.63
2023-10-20T07:00:07.797Z,14.60
2023-10-20T07:02:35.332Z,13.00
2023-10-20T07:05:03.025Z,15.80
2023-10-20T07:07:29.973Z,16.95
2023-10-20T07:09:56.868Z,15.43
2023-10-20T07:12:23.717Z,12.20
2023-10-20T07:14:50.830Z,17.88
2023-10-20T07:17:17.820Z,15.02
2023-10-20T07:19:44.871Z,9.57
2023-10-20T07:22:11.771Z,12.57
2023-10-20T07:24:40.704Z,12.45
2023-10-20T07:27:07.749Z,15.25
2023-10-20T07:29:38.023Z,15.57
2023-10-20T07:32:08.726Z,15.57
2023-10-20T07:34:35.758Z,20.15
2023-10-20T07:37:02.682Z,17.25
2023-10-20T07:39:29.824Z,12.15
2023-10-20T07:41:56.716Z,19.15
2023-10-20T07:44:24.598Z,14.30
2023-10-20T07:46:52.197Z,15.77
2023-10-20T07:49:19.129Z,14.07
2023-10-20T07:51:46.156Z,11.98
2023-10-20T07:54:13.742Z,17.88
2023-10-20T07:56:40.759Z,12.98
2023-10-20T07:59:09.044Z,11.73
2023-10-20T08:01:36.151Z,11.52
2023-10-20T08:04:03.855Z,10.23
2023-10-20T08:06:31.554Z,6.90
2023-10-20T08:08:58.805Z,7.13
2023-10-20T08:11:25.868Z,12.80
2023-10-20T08:13:52.857Z,12.15
2023-10-20T08:16:23.644Z,13.65
2023-10-20T08:18:52.356Z,5.65
2023-10-20T08:21:20.513Z,8.40
2023-10-20T08:23:48.284Z,5.97
2023-10-20T08:26:21.110Z,7.28
2023-10-20T08:28:50.249Z,6.03
2023-10-20T08:31:22.956Z,4.35
2023-10-20T08:33:52.767Z,9.05
2023-10-20T08:36:23.799Z,11.30
2023-10-20T08:38:52.564Z,5.03
2023-10-20T08:41:22.898Z,6.55
2023-10-20T08:43:50.811Z,5.00
2023-10-20T08:46:19.125Z,3.97
2023-10-20T08:48:49.880Z,3.40
2023-10-20T08:51:19.493Z,4.03
2023-10-20T08:53:47.630Z,3.70
2023-10-20T08:56:15.073Z,4.35
2023-10-20T08:58:46.573Z,4.85
2023-10-20T09:01:14.779Z,1.92
2023-10-20T09:03:45.030Z,2.90
2023-10-20T09:06:15.647Z,2.00
2023-10-20T09:08:51.694Z,6.55
2023-10-20T09:11:26.415Z,3.20
2023-10-20T09:13:54.526Z,2.25
2023-10-20T09:16:22.404Z,3.50
2023-10-20T09:18:54.554Z,2.70
2023-10-20T09:21:25.853Z,3.05
2023-10-20T09:23:58.748Z,2.33
2023-10-20T09:26:28.006Z,1.83
2023-10-20T09:28:57.309Z,1.48
2023-10-20T09:31:26.564Z,4.63
2023-10-20T09:33:53.787Z,4.00
2023-10-20T09:36:21.472Z,1.00
2023-10-20T09:38:56.320Z,2.88
2023-10-20T09:41:28.565Z,2.28
2023-10-20T09:44:10.031Z,1.55
2023-10-20T09:46:55.153Z,1.50
2023-10-20T09:49:27.614Z,2.97
2023-10-20T09:51:57.987Z,1.23
2023-10-20T09:54:33.440Z,1.17
2023-10-20T09:57:02.009Z,1.98
2023-10-20T09:59:29.722Z,1.30
2023-10-20T10:01:58.153Z,1.60
2023-10-20T10:04:41.214Z,0.90
2023-10-20T10:07:09.318Z,0.88
2023-10-20T10:09:41.626Z,1.55
2023-10-20T10:12:10.579Z,1.70
2023-10-20T10:14:38.542Z,1.55
2023-10-20T10:17:11.324Z,1.20
2023-10-20T10:19:52.404Z,0.90
2023-10-20T10:22:28.167Z,1.23
2023-10-20T10:24:57.092Z,1.65
2023-10-20T10:27:28.991Z,1.63
2023-10-20T10:30:06.949Z,0.55
2023-10-20T10:32:42.401Z,5.05
2023-10-20T10:35:09.501Z,0.98
2023-10-20T10:37:39.921Z,0.63
2023-10-20T10:40:12.206Z,1.98
2023-10-20T10:42:47.767Z,3.13
2023-10-20T10:45:30.320Z,0.52
2023-10-20T10:48:07.113Z,1.23
2023-10-20T10:50:36.762Z,1.58
2023-10-20T10:53:04.164Z,1.95
2023-10-20T10:55:31.949Z,3.40
2023-10-20T10:57:59.206Z,2.00
2023-10-20T11:00:37.396Z,0.80
2023-10-20T11:03:07.068Z,0.80
2023-10-20T11:05:34.664Z,0.57
2023-10-20T11:08:09.573Z,0.47
2023-10-20T11:10:39.082Z,1.02
2023-10-20T11:13:22.179Z,1.38
2023-10-20T11:15:50.589Z,1.67
2023-10-20T11:18:18.223Z,1.15
2023-10-20T11:20:48.939Z,1.65
2023-10-20T11:23:20.755Z,2.05
2023-10-20T11:25:49.964Z,1.00
2023-10-20T11:28:17.550Z,2.47
2023-10-20T11:30:47.045Z,0.93
2023-10-20T11:33:16.836Z,1.25
2023-10-20T11:35:45.241Z,1.00
2023-10-20T11:38:16.078Z,0.60
2023-10-20T11:40:43.131Z,1.17
2023-10-20T11:43:10.134Z,1.15
2023-10-20T11:45:36.982Z,3.13
2023-10-20T11:48:04.275Z,0.32
2023-10-20T11:50:31.565Z,0.68
2023-10-20T11:52:58.535Z,0.40
2023-10-20T11:55:25.594Z,0.95
2023-10-20T11:57:52.626Z,1.25
2023-10-20T12:00:20.271Z,1.65
2023-10-20T12:02:47.293Z,0.68
2023-10-20T12:05:14.327Z,1.77
2023-10-20T12:07:41.239Z,1.23
2023-10-20T12:10:08.681Z,1.52
2023-10-20T12:12:35.843Z,1.15
2023-10-20T12:15:03.953Z,1.38
2023-10-20T12:17:31.249Z,0.43
2023-10-20T12:19:58.365Z,0.82
2023-10-20T12:22:27.155Z,0.30
2023-10-20T12:24:54.407Z,0.35
2023-10-20T12:27:22.477Z,0.40
2023-10-20T12:29:49.784Z,2.72
2023-10-20T12:32:17.714Z,0.35
2023-10-20T12:34:44.754Z,0.52
2023-10-20T12:37:12.089Z,0.68
2023-10-20T12:39:41.240Z,0.93
2023-10-20T12:42:08.814Z,0.28
2023-10-20T12:44:36.525Z,0.55
2023-10-20T12:47:04.372Z,0.52
2023-10-20T12:49:33.033Z,1.77
2023-10-20T12:52:03.271Z,0.77
2023-10-20T12:54:30.837Z,0.60
2023-10-20T12:57:00.010Z,2.92
2023-10-20T12:59:27.331Z,0.82
2023-10-20T13:01:54.647Z,1.95
2023-10-20T13:04:22.097Z,1.13
2023-10-20T13:06:59.228Z,1.15
2023-10-20T13:09:28.332Z,0.68
2023-10-20T13:11:58.667Z,2.92
2023-10-20T13:14:26.746Z,0.68
2023-10-20T13:16:53.814Z,0.55
2023-10-20T13:19:20.688Z,0.73
2023-10-20T13:21:48.402Z,0.60
2023-10-20T13:24:15.454Z,0.45
2023-10-20T13:26:42.379Z,0.50
2023-10-20T13:29:09.353Z,0.73
2023-10-20T13:31:36.255Z,0.55
2023-10-20T13:34:04.032Z,0.52
2023-10-20T13:36:31.092Z,0.25
2023-10-20T13:38:58.126Z,0.20
2023-10-20T13:41:25.380Z,0.30
2023-10-20T13:43:53.201Z,0.35
2023-10-20T13:46:20.621Z,0.20
2023-10-20T13:48:48.386Z,0.30
2023-10-20T13:51:15.556Z,1.02
2023-10-20T13:53:42.610Z,0.73
2023-10-20T13:56:10.093Z,1.17
2023-10-20T13:58:37.007Z,1.15
2023-10-20T14:01:04.166Z,1.50
2023-10-20T14:03:31.384Z,0.70
2023-10-20T14:05:58.536Z,0.28
2023-10-20T14:08:26.187Z,1.52
2023-10-20T14:10:55.304Z,0.65
2023-10-20T14:13:28.221Z,0.45
2023-10-20T14:15:55.174Z,1.35
2023-10-20T14:18:23.068Z,0.88
2023-10-20T14:20:50.267Z,1.38
2023-10-20T14:23:19.100Z,0.82
2023-10-20T14:25:46.233Z,1.60
2023-10-20T14:28:13.450Z,1.17
2023-10-20T14:30:40.308Z,0.65
2023-10-20T14:33:07.224Z,0.73
2023-10-20T14:35:37.257Z,1.13
2023-10-20T14:38:04.317Z,0.85
2023-10-20T14:40:31.154Z,0.25
2023-10-20T14:42:58.001Z,0.10
2023-10-20T14:45:24.942Z,0.22
2023-10-20T14:47:51.840Z,0.45
2023-10-20T14:50:19.041Z,0.10
2023-10-20T14:52:45.975Z,0.20
2023-10-20T14:55:14.011Z,0.22
2023-10-20T14:57:41.454Z,0.28
2023-10-20T15:00:11.365Z,0.45
2023-10-20T15:02:39.780Z,0.40
2023-10-20T15:05:07.774Z,0.32
2023-10-20T15:07:37.415Z,0.60
2023-10-20T15:10:05.157Z,0.15
2023-10-20T15:12:32.269Z,0.20
2023-10-20T15:14:59.588Z,0.13
2023-10-20T15:17:26.782Z,0.10
2023-10-20T15:19:53.909Z,0.73
2023-10-20T15:22:20.845Z,0.32
2023-10-20T15:24:49.714Z,0.38
2023-10-20T15:27:19.045Z,0.10
2023-10-20T15:29:47.044Z,0.22
2023-10-20T15:32:16.485Z,0.17
2023-10-20T15:34:43.500Z,3.03
2023-10-20T15:37:10.420Z,0.55
2023-10-20T15:39:49.184Z,0.22
2023-10-20T15:42:25.054Z,0.38
2023-10-20T15:44:51.951Z,0.10
2023-10-20T15:47:19.002Z,0.52
2023-10-20T15:49:45.895Z,1.35
2023-10-20T15:52:12.981Z,1.08
2023-10-20T15:54:39.968Z,0.30
2023-10-20T15:57:07.382Z,0.52
2023-10-20T15:59:34.753Z,0.10
2023-10-20T16:02:01.899Z,0.52
2023-10-20T16:04:28.930Z,0.50
2023-10-20T16:06:55.956Z,0.32
2023-10-20T16:09:23.017Z,0.50
2023-10-20T16:11:49.991Z,0.20
2023-10-20T16:14:17.050Z,0.45
2023-10-20T16:16:43.954Z,0.85
2023-10-20T16:19:12.992Z,0.75
2023-10-20T16:21:40.280Z,0.30
2023-10-20T16:24:07.567Z,0.10
2023-10-20T16:26:34.634Z,0.28
2023-10-20T16:29:01.484Z,0.60
2023-10-20T16:31:28.409Z,0.38
2023-10-20T16:33:55.458Z,0.32
2023-10-20T16:36:22.305Z,0.98
2023-10-20T16:38:51.993Z,0.70
2023-10-20T16:41:19.107Z,6.03
2023-10-20T16:43:46.170Z,2.30
2023-10-20T16:46:13.137Z,0.38
2023-10-20T16:48:41.740Z,0.55
2023-10-20T16:51:09.061Z,1.63
2023-10-20T16:53:36.534Z,1.25
2023-10-20T16:56:04.698Z,1.00
2023-10-20T16:58:31.640Z,0.80
2023-10-20T17:01:04.139Z,0.28
2023-10-20T17:03:31.630Z,0.57
2023-10-20T17:05:58.793Z,2.72
2023-10-20T17:08:27.253Z,0.80
2023-10-20T17:10:55.923Z,4.53
2023-10-20T17:13:22.896Z,1.20
2023-10-20T17:15:49.804Z,1.05
2023-10-20T17:18:16.798Z,0.55
2023-10-20T17:20:43.789Z,1.48
2023-10-20T17:23:11.248Z,0.80
2023-10-20T17:25:39.462Z,0.60
2023-10-20T17:28:06.610Z,0.47
2023-10-20T17:30:37.571Z,1.17
2023-10-20T17:33:05.580Z,0.70
2023-10-20T17:35:35.977Z,1.38
2023-10-20T17:38:03.032Z,0.77
2023-10-20T17:40:29.888Z,0.85
2023-10-20T17:42:56.856Z,1.30
2023-10-20T17:45:24.220Z,0.80
2023-10-20T17:47:51.278Z,0.43
2023-10-20T17:50:18.600Z,2.53
2023-10-20T17:52:46.294Z,1.15
2023-10-20T17:55:13.269Z,1.27
2023-10-20T17:57:40.138Z,0.55
2023-10-20T18:00:13.138Z,1.42
2023-10-20T18:02:40.395Z,1.25
2023-10-20T18:05:07.607Z,1.42
2023-10-20T18:07:34.493Z,1.38
2023-10-20T18:10:01.433Z,1.58
2023-10-20T18:12:28.307Z,1.20
2023-10-20T18:14:55.239Z,1.10
2023-10-20T18:17:22.891Z,1.35
2023-10-20T18:19:49.748Z,1.83
2023-10-20T18:22:17.228Z,1.13
2023-10-20T18:24:44.361Z,2.58
2023-10-20T18:27:11.307Z,2.78
2023-10-20T18:29:38.586Z,3.30
2023-10-20T18:32:07.096Z,2.65
2023-10-20T18:34:33.958Z,1.75
2023-10-20T18:37:00.803Z,1.55
2023-10-20T18:39:27.752Z,3.22
2023-10-20T18:41:54.750Z,2.03
2023-10-20T18:44:21.823Z,2.28
2023-10-20T18:46:48.762Z,2.10
2023-10-20T18:49:15.769Z,2.05
2023-10-20T18:51:43.626Z,3.88
2023-10-20T18:54:11.128Z,2.00
2023-10-20T18:56:38.407Z,2.45
2023-10-20T18:59:06.319Z,2.35
2023-10-20T19:01:33.364Z,2.58
2023-10-20T19:04:02.301Z,3.10
2023-10-20T19:06:29.747Z,3.75
2023-10-20T19:08:56.802Z,2.83
2023-10-20T19:11:23.890Z,3.35
2023-10-20T19:13:50.958Z,2.55
2023-10-20T19:16:19.263Z,2.47
2023-10-20T19:18:46.393Z,3.08
2023-10-20T19:21:13.399Z,3.38
2023-10-20T19:23:40.481Z,4.20
2023-10-20T19:26:11.225Z,2.50
2023-10-20T19:28:39.195Z,3.80
2023-10-20T19:31:08.906Z,3.15
2023-10-20T19:33:37.148Z,3.08
2023-10-20T19:36:06.312Z,5.10
2023-10-20T19:38:36.650Z,4.85
2023-10-20T19:41:03.842Z,3.85
2023-10-20T19:43:30.705Z,4.38
2023-10-20T19:45:57.635Z,5.45
2023-10-20T19:48:24.716Z,5.15
2023-10-20T19:50:51.896Z,4.07
2023-10-20T19:53:18.943Z,6.70
2023-10-20T19:55:48.953Z,6.72
2023-10-20T19:58:15.979Z,4.90
2023-10-20T20:00:42.980Z,4.78
2023-10-20T20:03:12.024Z,4.97
2023-10-20T20:05:39.210Z,6.10
2023-10-20T20:08:06.411Z,7.22
2023-10-20T20:10:33.369Z,4.57
2023-10-20T20:13:00.255Z,5.50
2023-10-20T20:15:27.175Z,5.93
2023-10-20T20:17:56.425Z,4.82
2023-10-20T20:20:23.365Z,8.98
2023-10-20T20:22:50.241Z,8.02
2023-10-20T20:25:17.144Z,5.38
2023-10-20T20:27:44.012Z,5.38
2023-10-20T20:30:11.444Z,8.55
2023-10-20T20:32:38.563Z,7.20
2023-10-20T20:35:07.311Z,5.28
2023-10-20T20:37:34.487Z,6.50
2023-10-20T20:40:01.404Z,8.00
2023-10-20T20:42:28.284Z,7.80
2023-10-20T20:44:55.225Z,13.05
2023-10-20T20:47:22.102Z,12.57
2023-10-20T20:49:48.955Z,10.32
2023-10-20T20:52:15.840Z,12.90
2023-10-20T20:54:42.995Z,10.13
2023-10-20T20:57:10.037Z,13.50
2023-10-20T20:59:37.166Z,21.30
2023-10-20T21:02:04.360Z,10.07
2023-10-20T21:04:31.322Z,11.88
2023-10-20T21:06:58.697Z,16.60
2023-10-20T21:09:25.662Z,16.25
2023-10-20T21:11:52.546Z,15.23
2023-10-20T21:14:19.445Z,12.15
2023-10-20T21:16:47.184Z,13.35
2023-10-20T21:19:14.923Z,13.15
2023-10-20T21:21:41.937Z,15.68
2023-10-20T21:24:09.362Z,17.00
2023-10-20T21:26:36.410Z,21.83
2023-10-20T21:29:05.405Z,14.52
2023-10-20T21:31:32.712Z,19.50
2023-10-20T21:33:59.550Z,22.27
2023-10-20T21:36:26.379Z,19.70
2023-10-20T21:38:53.281Z,21.02
2023-10-20T21:41:20.282Z,21.40
2023-10-20T21:43:47.089Z,20.10
2023-10-20T21:46:14.504Z,20.15
2023-10-20T21:48:41.708Z,18.73
2023-10-20T21:51:11.949Z,23.35
2023-10-20T21:53:42.435Z,26.30
2023-10-20T21:56:10.361Z,25.83
2023-10-20T21:58:40.662Z,26.92
2023-10-20T22:01:10.309Z,27.77
2023-10-20T22:03:39.381Z,26.98
2023-10-20T22:06:08.163Z,25.40
2023-10-20T22:08:35.335Z,28.52
2023-10-20T22:11:02.543Z,25.02
2023-10-20T22:13:29.389Z,34.85
2023-10-20T22:15:56.860Z,29.92
2023-10-20T22:18:23.919Z,30.50
2023-10-20T22:20:51.142Z,33.40
2023-10-20T22:23:23.191Z,31.88
2023-10-20T22:25:50.304Z,29.00
2023-10-20T22:28:17.196Z,27.98
2023-10-20T22:30:44.184Z,25.33
2023-10-20T22:33:11.221Z,26.23
2023-10-20T22:35:38.148Z,26.73
2023-10-20T22:38:05.113Z,25.20
2023-10-20T22:40:31.962Z,32.05
2023-10-20T22:42:58.807Z,29.63
2023-10-20T22:45:25.746Z,32.83
2023-10-20T22:47:52.883Z,26.35
2023-10-20T22:50:20.476Z,27.65
2023-10-20T22:52:48.081Z,30.80
2023-10-20T22:55:15.569Z,26.30
2023-10-20T22:57:43.448Z,23.65
2023-10-20T23:00:11.299Z,24.48
2023-10-20T23:02:39.611Z,27.10
2023-10-20T23:05:08.606Z,24.30
2023-10-20T23:07:35.938Z,20.95
2023-10-20T23:10:04.760Z,22.88
2023-10-20T23:12:35.999Z,21.67
2023-10-20T23:15:03.008Z,24.73
2023-10-20T23:17:29.950Z,28.42
2023-10-20T23:19:57.893Z,31.10
2023-10-20T23:22:26.249Z,23.08
2023-10-20T23:24:54.272Z,25.63
2023-10-20T23:27:21.341Z,26.70
2023-10-20T23:29:48.445Z,24.65
2023-10-20T23:32:15.355Z,28.88
2023-10-20T23:34:42.485Z,25.27
2023-10-20T23:37:09.426Z,23.08
2023-10-20T23:39:37.085Z,27.05
2023-10-20T23:42:05.344Z,27.75
2023-10-20T23:44:32.804Z,30.52
2023-10-20T23:46:59.672Z,29.58
2023-10-20T23:49:26.815Z,29.85
2023-10-20T23:51:53.744Z,22.98
2023-10-20T23:54:20.728Z,24.83
2023-10-20T23:56:47.877Z,22.25
2023-10-20T23:59:14.771Z,20.25
